createdAt,value
2022-08-23T00:01:39.203Z,65.12
2022-08-23T00:04:07.877Z,64.80
2022-08-23T00:06:35.679Z,64.91
2022-08-23T00:09:03.137Z,65.05
2022-08-23T00:11:31.607Z,65.01
2022-08-23T00:13:59.622Z,64.88
2022-08-23T00:16:27.329Z,65.11
2022-08-23T00:18:56.186Z,65.02
2022-08-23T00:21:23.773Z,64.92
2022-08-23T00:23:51.225Z,65.22
2022-08-23T00:26:20.549Z,65.02
2022-08-23T00:28:48.062Z,65.13
2022-08-23T00:31:15.581Z,65.08
2022-08-23T00:33:43.028Z,65.23
2022-08-23T00:36:11.837Z,65.32
2022-08-23T00:38:39.545Z,65.29
2022-08-23T00:41:07.232Z,65.14
2022-08-23T00:43:53.628Z,65.31
2022-08-23T00:46:41.944Z,65.69
2022-08-23T00:49:10.338Z,65.74
2022-08-23T00:51:52.469Z,65.66
2022-08-23T00:54:20.529Z,65.78
2022-08-23T00:56:47.978Z,65.49
2022-08-23T00:59:15.385Z,65.80
2022-08-23T01:01:44.107Z,65.83
2022-08-23T01:04:11.732Z,65.96
2022-08-23T01:06:41.637Z,66.00
2022-08-23T01:09:11.088Z,66.09
2022-08-23T01:11:40.924Z,66.04
2022-08-23T01:14:11.221Z,66.29
2022-08-23T01:16:39.643Z,66.30
2022-08-23T01:19:13.472Z,66.14
2022-08-23T01:21:44.774Z,66.12
2022-08-23T01:24:19.286Z,66.29
2022-08-23T01:27:01.376Z,66.04
2022-08-23T01:29:28.845Z,66.08
2022-08-23T01:31:56.517Z,66.04
2022-08-23T01:34:25.602Z,66.31
2022-08-23T01:36:53.240Z,66.10
2022-08-23T01:39:22.096Z,66.11
2022-08-23T01:41:51.210Z,66.00
2022-08-23T01:44:18.843Z,66.11
2022-08-23T01:46:46.913Z,66.49
2022-08-23T01:49:14.677Z,66.15
2022-08-23T01:51:42.287Z,66.35
2022-08-23T01:54:09.689Z,66.44
2022-08-23T01:56:39.470Z,66.27
2022-08-23T01:59:07.567Z,66.34
2022-08-23T02:01:35.237Z,66.25
2022-08-23T02:04:05.139Z,66.45
2022-08-23T02:06:33.061Z,66.38
2022-08-23T02:09:03.886Z,66.61
2022-08-23T02:11:32.204Z,66.42
2022-08-23T02:14:01.523Z,66.33
2022-08-23T02:16:30.013Z,66.50
2022-08-23T02:18:57.482Z,66.51
2022-08-23T02:21:24.965Z,66.39
2022-08-23T02:23:52.490Z,66.36
2022-08-23T02:26:20.240Z,66.27
2022-08-23T02:28:58.421Z,66.39
2022-08-23T02:31:27.196Z,66.41
2022-08-23T02:33:54.938Z,66.63
2022-08-23T02:36:23.358Z,66.34
2022-08-23T02:38:51.374Z,66.32
2022-08-23T02:41:18.792Z,66.15
2022-08-23T02:43:46.310Z,66.51
2022-08-23T02:46:13.741Z,66.24
2022-08-23T02:48:42.761Z,66.26
2022-08-23T02:51:11.741Z,66.58
2022-08-23T02:53:39.170Z,66.38
2022-08-23T02:56:07.075Z,66.53
2022-08-23T02:58:53.971Z,66.22
2022-08-23T03:01:23.364Z,66.39
2022-08-23T03:03:52.529Z,66.71
2022-08-23T03:06:24.447Z,66.57
2022-08-23T03:08:53.731Z,66.79
2022-08-23T03:11:21.989Z,66.45
2022-08-23T03:13:49.761Z,66.73
2022-08-23T03:16:17.487Z,66.63
2022-08-23T03:18:45.086Z,66.67
2022-08-23T03:21:13.978Z,66.57
2022-08-23T03:23:41.431Z,66.94
2022-08-23T03:26:10.109Z,66.78
2022-08-23T03:28:38.626Z,66.95
2022-08-23T03:31:06.416Z,67.10
2022-08-23T03:33:33.866Z,67.14
2022-08-23T03:36:01.290Z,67.26
2022-08-23T03:38:30.177Z,66.94
2022-08-23T03:40:58.354Z,66.89
2022-08-23T03:43:25.913Z,67.13
2022-08-23T03:45:53.340Z,67.14
2022-08-23T03:48:20.735Z,67.07
2022-08-23T03:50:48.167Z,67.07
2022-08-23T03:53:16.337Z,67.45
2022-08-23T03:55:45.205Z,67.43
2022-08-23T03:58:12.687Z,67.18
2022-08-23T04:00:40.089Z,67.39
2022-08-23T04:03:07.494Z,67.47
2022-08-23T04:05:34.924Z,67.43
2022-08-23T04:08:07.237Z,67.14
2022-08-23T04:10:34.649Z,67.24
2022-08-23T04:13:03.440Z,67.11
2022-08-23T04:15:31.226Z,67.19
2022-08-23T04:17:59.455Z,67.09
2022-08-23T04:20:27.094Z,67.20
2022-08-23T04:22:54.980Z,67.06
2022-08-23T04:25:34.395Z,67.22
2022-08-23T04:28:04.313Z,67.20
2022-08-23T04:30:32.187Z,67.23
2022-08-23T04:32:59.779Z,67.19
2022-08-23T04:35:30.216Z,67.21
2022-08-23T04:37:57.735Z,67.33
2022-08-23T04:40:42.924Z,67.08
2022-08-23T04:43:12.734Z,67.17
2022-08-23T04:45:40.694Z,67.16
2022-08-23T04:48:11.799Z,67.07
2022-08-23T04:50:40.432Z,66.97
2022-08-23T04:53:08.251Z,67.55
2022-08-23T04:55:36.464Z,67.37
2022-08-23T04:58:04.201Z,67.22
2022-08-23T05:00:33.463Z,66.78
2022-08-23T05:03:01.087Z,67.32
2022-08-23T05:05:28.571Z,67.40
2022-08-23T05:07:56.037Z,67.26
2022-08-23T05:10:23.792Z,67.22
2022-08-23T05:12:51.220Z,67.50
2022-08-23T05:15:18.789Z,67.32
2022-08-23T05:17:47.586Z,67.68
2022-08-23T05:20:14.985Z,67.59
2022-08-23T05:22:42.795Z,67.41
2022-08-23T05:25:10.486Z,67.54
2022-08-23T05:27:38.005Z,67.65
2022-08-23T05:30:06.065Z,68.00
2022-08-23T05:32:33.873Z,67.80
2022-08-23T05:35:02.746Z,68.02
2022-08-23T05:37:30.168Z,68.19
2022-08-23T05:39:57.660Z,67.99
2022-08-23T05:42:25.166Z,68.09
2022-08-23T05:44:52.605Z,67.88
2022-08-23T05:47:24.728Z,67.78
2022-08-23T05:49:52.847Z,67.70
2022-08-23T05:52:21.638Z,67.64
2022-08-23T05:54:49.011Z,68.08
2022-08-23T05:57:16.470Z,67.82
2022-08-23T05:59:43.922Z,67.96
2022-08-23T06:02:11.339Z,68.07
2022-08-23T06:04:38.797Z,67.59
2022-08-23T06:07:06.661Z,67.81
2022-08-23T06:09:35.531Z,67.75
2022-08-23T06:12:03.064Z,67.86
2022-08-23T06:14:30.551Z,67.89
2022-08-23T06:16:58.036Z,67.77
2022-08-23T06:19:25.432Z,67.64
2022-08-23T06:21:53.122Z,67.41
2022-08-23T06:24:20.789Z,67.65
2022-08-23T06:26:49.739Z,67.49
2022-08-23T06:29:17.968Z,67.61
2022-08-23T06:31:46.998Z,67.22
2022-08-23T06:34:15.869Z,66.54
2022-08-23T06:36:43.310Z,66.38
2022-08-23T06:39:11.422Z,66.53
2022-08-23T06:41:39.186Z,66.48
2022-08-23T06:44:08.185Z,65.95
2022-08-23T06:46:36.021Z,66.07
2022-08-23T06:49:05.355Z,65.95
2022-08-23T06:51:33.597Z,65.72
2022-08-23T06:54:03.436Z,65.82
2022-08-23T06:56:31.001Z,65.38
2022-08-23T06:58:59.140Z,65.42
2022-08-23T07:01:45.262Z,65.68
2022-08-23T07:04:14.738Z,64.92
2022-08-23T07:06:42.201Z,64.87
2022-08-23T07:09:09.613Z,64.73
2022-08-23T07:11:37.400Z,64.51
2022-08-23T07:14:06.308Z,64.84
2022-08-23T07:16:35.932Z,64.55
2022-08-23T07:19:03.527Z,64.59
2022-08-23T07:21:31.026Z,64.52
2022-08-23T07:23:58.564Z,64.88
2022-08-23T07:26:26.244Z,64.68
2022-08-23T07:28:57.060Z,64.55
2022-08-23T07:31:27.125Z,64.20
2022-08-23T07:33:58.848Z,64.65
2022-08-23T07:36:27.975Z,65.06
2022-08-23T07:38:55.638Z,64.73
2022-08-23T07:41:24.582Z,64.64
2022-08-23T07:43:52.128Z,64.57
2022-08-23T07:46:19.590Z,65.39
2022-08-23T07:48:54.372Z,63.94
2022-08-23T07:51:23.698Z,63.90
2022-08-23T07:53:51.114Z,64.11
2022-08-23T07:56:19.479Z,64.06
2022-08-23T07:58:47.971Z,64.12
2022-08-23T08:01:16.495Z,63.68
2022-08-23T08:03:44.829Z,63.75
2022-08-23T08:06:13.658Z,63.11
2022-08-23T08:08:42.861Z,63.30
2022-08-23T08:11:10.940Z,63.07
2022-08-23T08:13:38.454Z,63.34
2022-08-23T08:16:06.084Z,62.81
2022-08-23T08:18:33.634Z,62.65
2022-08-23T08:21:01.290Z,62.27
2022-08-23T08:23:29.217Z,62.22
2022-08-23T08:26:02.244Z,62.07
2022-08-23T08:28:29.653Z,61.88
2022-08-23T08:30:58.942Z,61.62
2022-08-23T08:33:27.536Z,61.20
2022-08-23T08:35:59.331Z,61.32
2022-08-23T08:38:31.103Z,61.46
2022-08-23T08:41:03.084Z,60.63
2022-08-23T08:43:31.947Z,61.44
2022-08-23T08:46:02.242Z,61.21
2022-08-23T08:48:29.970Z,61.31
2022-08-23T08:50:57.851Z,60.97
2022-08-23T08:53:25.969Z,60.57
2022-08-23T08:55:54.848Z,60.78
2022-08-23T08:58:26.030Z,60.20
2022-08-23T09:00:56.742Z,58.55
2022-08-23T09:03:24.441Z,58.25
2022-08-23T09:05:56.450Z,58.20
2022-08-23T09:08:30.346Z,58.77
2022-08-23T09:11:02.600Z,59.56
2022-08-23T09:13:56.941Z,59.99
2022-08-23T09:16:29.063Z,60.34
2022-08-23T09:18:56.521Z,60.03
2022-08-23T09:21:23.981Z,59.85
2022-08-23T09:24:00.308Z,57.38
2022-08-23T09:26:30.233Z,57.02
2022-08-23T09:28:59.707Z,57.51
2022-08-23T09:31:41.935Z,58.13
2022-08-23T09:34:09.529Z,59.26
2022-08-23T09:36:37.655Z,58.81
2022-08-23T09:39:06.119Z,57.22
2022-08-23T09:41:36.531Z,56.95
2022-08-23T09:44:04.685Z,58.50
2022-08-23T09:46:35.639Z,57.88
2022-08-23T09:49:22.068Z,58.51
2022-08-23T09:51:49.496Z,57.43
2022-08-23T09:54:20.280Z,54.71
2022-08-23T09:56:51.462Z,55.97
2022-08-23T09:59:26.489Z,56.46
2022-08-23T10:01:54.806Z,56.18
2022-08-23T10:04:25.445Z,55.26
2022-08-23T10:06:52.916Z,55.99
2022-08-23T10:09:24.928Z,55.31
2022-08-23T10:11:52.333Z,55.86
2022-08-23T10:14:21.118Z,57.10
2022-08-23T10:16:55.426Z,57.29
2022-08-23T10:19:25.462Z,56.71
2022-08-23T10:21:54.922Z,55.88
2022-08-23T10:24:25.302Z,54.08
2022-08-23T10:27:01.214Z,54.33
2022-08-23T10:29:38.949Z,54.60
2022-08-23T10:32:09.773Z,55.73
2022-08-23T10:34:49.799Z,55.13
2022-08-23T10:37:24.519Z,55.64
2022-08-23T10:39:54.053Z,55.07
2022-08-23T10:42:32.488Z,55.84
2022-08-23T10:45:01.389Z,51.53
2022-08-23T10:47:31.276Z,55.03
2022-08-23T10:50:00.994Z,53.60
2022-08-23T10:52:29.971Z,51.28
2022-08-23T10:55:00.954Z,55.08
2022-08-23T10:57:31.500Z,53.52
2022-08-23T10:59:59.424Z,53.45
2022-08-23T11:02:29.297Z,54.54
2022-08-23T11:04:58.134Z,48.90
2022-08-23T11:07:28.460Z,53.26
2022-08-23T11:09:58.224Z,47.25
2022-08-23T11:12:27.174Z,50.13
2022-08-23T11:15:04.901Z,52.69
2022-08-23T11:17:32.955Z,54.00
2022-08-23T11:20:01.379Z,47.84
2022-08-23T11:22:31.001Z,53.56
2022-08-23T11:25:00.127Z,52.09
2022-08-23T11:27:32.624Z,51.62
2022-08-23T11:30:07.703Z,51.78
2022-08-23T11:32:37.928Z,52.94
2022-08-23T11:35:20.307Z,46.07
2022-08-23T11:37:55.111Z,43.12
2022-08-23T11:40:41.143Z,48.78
2022-08-23T11:43:09.872Z,48.82
2022-08-23T11:45:40.698Z,51.53
2022-08-23T11:48:15.829Z,51.98
2022-08-23T11:50:46.599Z,52.44
2022-08-23T11:53:22.539Z,53.02
2022-08-23T11:55:57.344Z,52.34
2022-08-23T11:58:27.611Z,52.51
2022-08-23T12:00:57.418Z,53.29
2022-08-23T12:03:25.659Z,51.35
2022-08-23T12:06:08.975Z,52.78
2022-08-23T12:08:55.325Z,52.98
2022-08-23T12:11:24.313Z,42.85
2022-08-23T12:14:01.867Z,50.58
2022-08-23T12:17:57.580Z,41.17
2022-08-23T12:20:31.407Z,40.20
2022-08-23T12:23:15.617Z,40.36
2022-08-23T12:25:43.886Z,39.33
2022-08-23T12:28:24.766Z,40.50
2022-08-23T12:30:57.639Z,38.79
2022-08-23T12:33:33.974Z,38.60
2022-08-23T12:36:05.860Z,38.85
2022-08-23T12:38:53.909Z,38.58
2022-08-23T12:41:24.069Z,38.16
2022-08-23T12:43:57.553Z,39.09
2022-08-23T12:46:38.005Z,39.71
2022-08-23T12:49:08.628Z,37.71
2022-08-23T12:51:42.900Z,39.07
2022-08-23T12:54:15.853Z,37.89
2022-08-23T12:56:47.887Z,38.75
2022-08-23T12:59:34.084Z,38.58
2022-08-23T13:02:02.758Z,38.48
2022-08-23T13:04:33.626Z,39.11
2022-08-23T13:07:04.969Z,39.76
2022-08-23T13:09:35.250Z,38.46
2022-08-23T13:12:03.099Z,38.02
2022-08-23T13:14:37.271Z,37.80
2022-08-23T13:17:17.468Z,37.45
2022-08-23T13:19:47.628Z,37.23
2022-08-23T13:22:22.263Z,37.42
2022-08-23T13:25:27.340Z,37.15
2022-08-23T13:27:54.705Z,37.47
2022-08-23T13:30:25.778Z,39.14
2022-08-23T13:32:55.081Z,38.78
2022-08-23T13:35:35.006Z,37.09
2022-08-23T13:38:13.899Z,39.59
2022-08-23T13:41:00.666Z,38.63
2022-08-23T13:43:32.042Z,37.97
2022-08-23T13:46:01.359Z,39.28
2022-08-23T13:48:31.858Z,38.22
2022-08-23T13:51:19.184Z,38.86
2022-08-23T13:53:46.773Z,37.85
2022-08-23T13:56:14.965Z,37.64
2022-08-23T13:58:42.852Z,37.31
2022-08-23T14:01:18.664Z,37.31
2022-08-23T14:03:47.364Z,37.13
2022-08-23T14:06:15.038Z,36.73
2022-08-23T14:08:44.085Z,37.08
2022-08-23T14:11:12.681Z,38.78
2022-08-23T14:13:40.333Z,38.00
2022-08-23T14:21:46.702Z,39.00
2022-08-23T14:24:15.709Z,38.74
2022-08-23T14:26:51.714Z,38.29
2022-08-23T14:29:22.399Z,38.72
2022-08-23T14:31:51.020Z,37.16
2022-08-23T14:34:18.649Z,36.32
2022-08-23T14:39:35.491Z,38.21
2022-08-23T14:42:03.602Z,40.14
2022-08-23T14:44:35.847Z,37.94
2022-08-23T14:47:04.906Z,36.99
2022-08-23T14:49:32.499Z,37.03
2022-08-23T14:52:00.179Z,37.14
2022-08-23T14:54:27.848Z,39.00
2022-08-23T14:56:56.967Z,37.32
2022-08-23T14:59:24.614Z,37.65
2022-08-23T15:01:54.818Z,37.08
2022-08-23T15:04:24.304Z,37.43
2022-08-23T15:07:16.715Z,36.47
2022-08-23T15:09:41.341Z,36.14
2022-08-23T15:12:57.235Z,35.53
2022-08-23T15:14:58.300Z,35.49
2022-08-23T15:17:30.993Z,35.91
2022-08-23T15:19:59.389Z,34.16
2022-08-23T15:22:27.023Z,35.23
2022-08-23T15:24:54.654Z,34.53
2022-08-23T15:27:23.674Z,34.77
2022-08-23T15:29:51.227Z,33.79
2022-08-23T15:32:22.715Z,34.35
2022-08-23T15:34:51.141Z,32.90
2022-08-23T15:37:21.671Z,33.62
2022-08-23T15:39:49.677Z,34.52
2022-08-23T15:42:20.083Z,34.28
2022-08-23T15:44:49.859Z,33.33
2022-08-23T15:47:21.638Z,33.18
2022-08-23T15:49:49.648Z,33.82
2022-08-23T15:52:17.365Z,34.50
2022-08-23T15:54:45.256Z,33.68
2022-08-23T15:57:15.336Z,34.00
2022-08-23T15:59:43.046Z,33.21
2022-08-23T16:02:12.132Z,33.39
2022-08-23T16:04:40.032Z,34.04
2022-08-23T16:07:08.598Z,34.43
2022-08-23T16:09:36.829Z,34.18
2022-08-23T16:12:06.083Z,34.28
2022-08-23T16:14:33.755Z,33.81
2022-08-23T16:17:02.011Z,33.79
2022-08-23T16:19:31.346Z,33.96
2022-08-23T16:22:00.555Z,33.99
2022-08-23T16:24:28.443Z,34.50
2022-08-23T16:26:56.590Z,34.10
2022-08-23T16:29:24.328Z,34.52
2022-08-23T16:31:52.046Z,34.20
2022-08-23T16:34:20.850Z,34.60
2022-08-23T16:36:53.102Z,34.13
2022-08-23T16:39:22.660Z,34.60
2022-08-23T16:41:50.282Z,34.47
2022-08-23T16:44:18.228Z,34.61
